Time;durP1;ratioP1;P1;durP2;ratioP2;P2;SDS_P1;SDS_P2;PMS_P1;PMS_P2;Temp;Humidity;BMP_temperature;BMP_pressure;BME280_temperature;BME280_humidity;BME280_pressure;Samples;Min_cycle;Max_cycle;Signal;HPM_P1;HPM_P2
2021/12/31 00:02:24;;;;;;;27.88;5.38;;;9.90;99.90;;;;;;5064042;28;20151;-80
2021/12/31 00:04:50;;;;;;;26.38;4.82;;;9.80;99.90;;;;;;5056938;28;20130;-80
2021/12/31 00:07:17;;;;;;;25.38;5.00;;;9.80;99.90;;;;;;5050575;28;20582;-80
2021/12/31 00:09:43;;;;;;;24.83;4.93;;;9.80;99.90;;;;;;5079023;28;20040;-79
2021/12/31 00:12:09;;;;;;;19.92;4.82;;;9.80;99.90;;;;;;5059809;28;20481;-80
2021/12/31 00:14:36;;;;;;;21.35;4.50;;;9.80;99.90;;;;;;5065209;28;20113;-79
2021/12/31 00:17:03;;;;;;;23.65;4.50;;;9.80;99.90;;;;;;5057833;28;20044;-80
2021/12/31 00:19:31;;;;;;;21.83;4.95;;;9.80;99.90;;;;;;5081168;28;20223;-80
2021/12/31 00:21:59;;;;;;;20.58;4.32;;;9.80;99.90;;;;;;5049450;28;20055;-80
2021/12/31 00:24:25;;;;;;;21.15;4.63;;;9.80;99.90;;;;;;5064032;28;20075;-80
2021/12/31 00:26:51;;;;;;;21.88;4.28;;;9.80;99.90;;;;;;5065152;28;20048;-80
2021/12/31 00:29:17;;;;;;;26.08;4.70;;;9.80;99.90;;;;;;5073484;28;20106;-79
2021/12/31 00:31:43;;;;;;;28.45;6.32;;;9.80;99.90;;;;;;5050137;28;20049;-78
2021/12/31 00:34:09;;;;;;;21.67;4.63;;;9.80;99.90;;;;;;5059937;28;20036;-81
2021/12/31 00:36:46;;;;;;;23.52;4.28;;;9.80;99.90;;;;;;5082103;28;20040;-80
2021/12/31 00:39:14;;;;;;;22.73;5.28;;;9.80;99.90;;;;;;5078585;28;20090;-80
2021/12/31 00:41:40;;;;;;;29.05;5.43;;;9.80;99.90;;;;;;5078829;28;20060;-81
2021/12/31 00:44:06;;;;;;;19.23;4.35;;;9.80;99.90;;;;;;5061798;28;20056;-81
2021/12/31 00:46:32;;;;;;;26.27;5.13;;;9.80;99.90;;;;;;5060231;28;20044;-81
2021/12/31 00:48:58;;;;;;;25.35;5.47;;;9.80;99.90;;;;;;5066064;28;20048;-81
2021/12/31 00:51:25;;;;;;;19.50;4.32;;;9.80;99.90;;;;;;5082746;28;20047;-81
2021/12/31 00:53:51;;;;;;;24.90;4.38;;;9.80;99.90;;;;;;5078181;28;20052;-80
2021/12/31 00:56:17;;;;;;;22.92;4.13;;;9.80;99.90;;;;;;5049630;28;20040;-81
2021/12/31 00:58:43;;;;;;;20.35;4.95;;;9.90;99.90;;;;;;5043182;28;20122;-80
2021/12/31 01:01:15;;;;;;;24.60;5.07;;;9.90;99.90;;;;;;5048581;28;20537;-81
2021/12/31 01:03:41;;;;;;;24.38;4.85;;;9.90;99.90;;;;;;5078569;28;20157;-80
2021/12/31 01:06:07;;;;;;;25.42;5.05;;;9.90;99.90;;;;;;5060955;28;20047;-80
2021/12/31 01:08:33;;;;;;;22.40;4.43;;;9.90;99.90;;;;;;5068904;28;20047;-80
2021/12/31 01:10:58;;;;;;;24.98;5.63;;;9.90;99.90;;;;;;5062277;28;20040;-81
2021/12/31 01:13:33;;;;;;;22.67;5.03;;;9.90;99.90;;;;;;5066025;28;20044;-81
2021/12/31 01:16:01;;;;;;;20.02;4.75;;;10.20;99.90;;;;;;5067518;28;20055;-81
2021/12/31 01:19:45;;;;;;;20.63;4.55;;;9.90;99.90;;;;;;5069464;28;20040;-80
2021/12/31 01:21:15;;;;;;;22.42;5.15;;;9.90;99.90;;;;;;5066372;28;20048;-81
2021/12/31 01:23:42;;;;;;;24.52;4.75;;;8.80;99.90;;;;;;5069934;28;20055;-80
2021/12/31 01:26:08;;;;;;;25.35;5.28;;;9.90;99.90;;;;;;5067336;28;20055;-81
2021/12/31 01:28:35;;;;;;;25.15;5.13;;;10.10;99.90;;;;;;5066271;28;20466;-81
2021/12/31 01:31:01;;;;;;;18.90;4.60;;;9.90;99.90;;;;;;5083141;28;20044;-81
2021/12/31 01:33:26;;;;;;;24.52;5.15;;;9.90;99.90;;;;;;5052031;28;20051;-81
2021/12/31 01:35:52;;;;;;;20.42;4.78;;;9.90;99.90;;;;;;5067525;28;20044;-81
2021/12/31 01:38:19;;;;;;;23.70;5.07;;;9.90;99.90;;;;;;5053472;28;20075;-81
2021/12/31 01:40:45;;;;;;;25.10;5.10;;;9.90;99.90;;;;;;5061572;28;20105;-80
2021/12/31 01:43:12;;;;;;;21.92;4.88;;;9.90;99.90;;;;;;5067415;28;20048;-81
2021/12/31 01:45:47;;;;;;;22.15;4.47;;;9.80;99.90;;;;;;5050334;28;20041;-81
2021/12/31 01:50:58;;;;;;;18.10;4.35;;;9.80;99.90;;;;;;5083288;28;20056;-81
2021/12/31 01:53:25;;;;;;;25.52;4.90;;;9.90;99.90;;;;;;5051911;28;20052;-81
2021/12/31 01:55:54;;;;;;;23.38;4.20;;;9.90;99.90;;;;;;5066456;28;20051;-80
2021/12/31 01:58:22;;;;;;;14.05;3.95;;;9.90;99.90;;;;;;5052762;28;20074;-81
2021/12/31 02:00:48;;;;;;;20.63;4.15;;;9.90;99.90;;;;;;5066459;28;20051;-80
2021/12/31 02:03:17;;;;;;;19.20;4.00;;;10.00;99.90;;;;;;5051647;28;20036;-80
2021/12/31 02:05:42;;;;;;;18.20;3.38;;;9.90;99.90;;;;;;5066251;28;20120;-81
2021/12/31 02:08:08;;;;;;;17.90;4.28;;;9.90;99.90;;;;;;5083653;28;20465;-81
2021/12/31 02:10:34;;;;;;;21.35;3.75;;;10.00;99.90;;;;;;5052279;28;20056;-81
2021/12/31 02:13:00;;;;;;;22.25;5.13;;;10.00;99.90;;;;;;5052189;28;20040;-81
2021/12/31 02:15:26;;;;;;;24.83;4.63;;;9.90;99.90;;;;;;5065477;28;20066;-81
2021/12/31 02:17:53;;;;;;;21.70;4.85;;;9.90;99.90;;;;;;5062470;28;20055;-81
2021/12/31 02:20:20;;;;;;;21.75;4.45;;;9.90;99.90;;;;;;5061126;28;20047;-81
2021/12/31 02:23:05;;;;;;;17.35;4.72;;;9.90;99.90;;;;;;5077469;28;20044;-81
2021/12/31 02:25:32;;;;;;;24.40;5.20;;;9.90;99.90;;;;;;5066747;28;20155;-81
2021/12/31 02:27:59;;;;;;;26.13;4.35;;;10.00;99.90;;;;;;5082047;28;20040;-81
2021/12/31 02:30:24;;;;;;;20.25;5.07;;;10.00;99.90;;;;;;5082123;28;20398;-81
2021/12/31 02:32:50;;;;;;;26.30;4.53;;;9.90;99.90;;;;;;5061017;28;20048;-81
2021/12/31 02:35:17;;;;;;;21.95;4.93;;;9.90;99.90;;;;;;5062943;28;20051;-81
2021/12/31 02:37:43;;;;;;;19.70;4.28;;;10.00;99.90;;;;;;5078372;28;20055;-81
2021/12/31 02:40:12;;;;;;;17.33;5.22;;;10.00;99.90;;;;;;5067743;28;20520;-81
2021/12/31 02:42:40;;;;;;;19.38;4.40;;;9.90;99.90;;;;;;5066080;28;20497;-81
2021/12/31 02:45:07;;;;;;;20.85;4.65;;;9.90;99.90;;;;;;5035213;28;20040;-82
2021/12/31 02:47:33;;;;;;;15.50;4.45;;;9.90;99.90;;;;;;5067708;28;20055;-80
2021/12/31 02:50:03;;;;;;;22.88;4.75;;;9.90;99.90;;;;;;5051314;28;20143;-81
2021/12/31 02:52:28;;;;;;;19.88;3.88;;;9.90;99.90;;;;;;5081677;28;20044;-81
2021/12/31 02:54:56;;;;;;;18.33;4.50;;;9.90;99.90;;;;;;5062948;28;20403;-81
2021/12/31 02:57:22;;;;;;;25.20;4.45;;;9.90;99.90;;;;;;5066207;28;20058;-81
2021/12/31 02:59:48;;;;;;;18.83;5.57;;;9.90;99.90;;;;;;5067724;28;20044;-80
2021/12/31 03:02:20;;;;;;;21.98;4.32;;;9.90;99.90;;;;;;5075995;28;20063;-81
2021/12/31 03:04:46;;;;;;;22.15;4.53;;;9.90;99.90;;;;;;5101725;28;20501;-81
2021/12/31 03:07:13;;;;;;;20.90;4.20;;;10.00;99.90;;;;;;5067358;28;20048;-81
2021/12/31 03:09:43;;;;;;;23.00;4.15;;;10.00;99.90;;;;;;5070674;28;20055;-81
2021/12/31 03:12:10;;;;;;;18.73;4.55;;;10.00;99.90;;;;;;5085684;28;20054;-81
2021/12/31 03:14:37;;;;;;;21.08;4.43;;;10.00;99.90;;;;;;5062732;28;20046;-81
2021/12/31 03:17:04;;;;;;;19.63;3.75;;;10.00;99.90;;;;;;5085031;28;20084;-81
2021/12/31 03:19:29;;;;;;;15.15;3.53;;;10.00;99.90;;;;;;5063701;28;20044;-82
2021/12/31 03:21:55;;;;;;;19.25;3.72;;;10.00;99.90;;;;;;5038278;28;20519;-81
2021/12/31 03:24:21;;;;;;;25.33;4.78;;;10.10;99.90;;;;;;5054350;28;20070;-81
2021/12/31 03:26:47;;;;;;;20.65;4.47;;;10.00;99.90;;;;;;5067754;28;20125;-81
2021/12/31 03:29:12;;;;;;;17.80;3.80;;;10.00;99.90;;;;;;5084367;28;20040;-81
2021/12/31 03:31:38;;;;;;;26.20;4.72;;;10.10;99.90;;;;;;5071208;28;20040;-81
2021/12/31 03:34:04;;;;;;;18.40;4.00;;;9.90;99.90;;;;;;5054996;28;20603;-81
2021/12/31 03:36:29;;;;;;;16.92;4.10;;;10.00;99.90;;;;;;5054061;28;20078;-81
2021/12/31 03:38:55;;;;;;;19.38;4.28;;;9.90;99.90;;;;;;5068510;28;21115;-81
2021/12/31 03:41:21;;;;;;;21.70;4.53;;;10.00;99.90;;;;;;5067367;28;20105;-81
2021/12/31 03:43:46;;;;;;;18.10;3.97;;;10.00;99.90;;;;;;5054253;28;20047;-81
2021/12/31 03:46:12;;;;;;;18.25;3.97;;;10.10;99.90;;;;;;5069550;28;20053;-81
2021/12/31 03:48:38;;;;;;;18.17;4.13;;;10.10;99.90;;;;;;5068161;28;20048;-81
2021/12/31 03:51:04;;;;;;;15.80;3.65;;;10.20;99.90;;;;;;5086623;28;20043;-81
2021/12/31 03:53:29;;;;;;;19.17;4.00;;;10.60;99.90;;;;;;5052381;28;20551;-81
2021/12/31 03:55:55;;;;;;;17.00;3.72;;;10.30;99.90;;;;;;5071406;28;20039;-81
2021/12/31 03:58:21;;;;;;;17.88;4.10;;;10.20;99.90;;;;;;5085277;28;20519;-81
2021/12/31 04:00:47;;;;;;;22.42;4.38;;;10.20;99.90;;;;;;5078826;28;20732;-81
2021/12/31 04:03:13;;;;;;;16.55;4.43;;;10.20;99.90;;;;;;5082828;28;20043;-82
2021/12/31 04:05:40;;;;;;;20.33;4.35;;;10.20;99.90;;;;;;5054483;28;20651;-81
2021/12/31 04:08:08;;;;;;;19.63;4.43;;;10.20;99.90;;;;;;5088561;28;20500;-80
2021/12/31 04:10:34;;;;;;;17.55;4.68;;;10.20;99.90;;;;;;5067838;28;20035;-81
2021/12/31 04:13:00;;;;;;;19.70;4.40;;;10.20;99.90;;;;;;5069555;28;20054;-81
2021/12/31 04:15:26;;;;;;;15.55;4.40;;;10.20;99.90;;;;;;5053931;28;20492;-79
2021/12/31 04:17:52;;;;;;;17.33;4.68;;;10.20;99.90;;;;;;5070077;28;20055;-79
2021/12/31 04:20:39;;;;;;;17.58;4.32;;;10.20;99.90;;;;;;5081858;28;20122;-79
2021/12/31 04:23:14;;;;;;;13.75;3.88;;;10.30;99.90;;;;;;5073137;28;20109;-79
2021/12/31 04:25:41;;;;;;;15.52;3.33;;;10.20;99.90;;;;;;5066442;28;20060;-79
2021/12/31 04:28:07;;;;;;;13.82;3.45;;;10.20;99.90;;;;;;5087849;28;20059;-79
2021/12/31 04:30:33;;;;;;;11.20;4.30;;;10.30;99.90;;;;;;5069865;28;20114;-79
2021/12/31 04:33:00;;;;;;;16.38;4.18;;;10.30;99.90;;;;;;5053780;28;20047;-79
2021/12/31 04:35:26;;;;;;;14.65;3.70;;;10.30;99.90;;;;;;5036024;28;20527;-78
2021/12/31 04:37:52;;;;;;;15.55;4.53;;;10.40;99.90;;;;;;5054846;28;20070;-78
2021/12/31 04:40:18;;;;;;;23.15;4.15;;;10.40;99.90;;;;;;5073112;28;20044;-78
2021/12/31 04:42:44;;;;;;;19.60;4.00;;;10.40;99.90;;;;;;5058490;28;20504;-79
2021/12/31 04:45:11;;;;;;;19.45;3.60;;;10.40;99.90;;;;;;5072559;28;20051;-79
2021/12/31 04:47:38;;;;;;;15.25;3.13;;;10.40;99.90;;;;;;5090779;28;20074;-79
2021/12/31 04:50:04;;;;;;;15.25;3.63;;;10.40;99.90;;;;;;5090560;28;20100;-79
2021/12/31 04:52:30;;;;;;;11.32;3.40;;;10.40;99.90;;;;;;5055691;28;20048;-79
2021/12/31 04:54:56;;;;;;;18.30;3.38;;;10.40;99.90;;;;;;5075535;28;20066;-79
2021/12/31 04:57:24;;;;;;;15.35;3.38;;;10.40;99.90;;;;;;5066718;28;20044;-79
2021/12/31 04:59:51;;;;;;;16.13;3.33;;;10.40;99.90;;;;;;5087115;28;20046;-78
2021/12/31 05:02:16;;;;;;;14.73;3.13;;;10.40;99.90;;;;;;5088850;28;20050;-79
2021/12/31 05:04:42;;;;;;;11.98;3.55;;;10.40;99.90;;;;;;5054360;28;20047;-78
2021/12/31 05:07:08;;;;;;;13.02;3.13;;;10.40;99.90;;;;;;5074272;28;20044;-78
2021/12/31 05:09:34;;;;;;;12.93;3.63;;;10.40;99.90;;;;;;5071390;28;20232;-81
2021/12/31 05:12:01;;;;;;;12.10;3.40;;;10.40;99.90;;;;;;5057383;28;20047;-79
2021/12/31 05:14:27;;;;;;;11.27;2.78;;;10.40;99.90;;;;;;5069427;28;20054;-79
2021/12/31 05:16:53;;;;;;;14.48;3.50;;;10.40;99.90;;;;;;5057665;28;20051;-78
2021/12/31 05:19:18;;;;;;;13.15;3.22;;;10.40;99.90;;;;;;5070274;28;20127;-79
2021/12/31 05:21:44;;;;;;;16.10;3.10;;;10.40;99.90;;;;;;5073673;28;20051;-79
2021/12/31 05:24:10;;;;;;;12.90;3.42;;;10.40;99.90;;;;;;5070191;28;20449;-78
2021/12/31 05:26:36;;;;;;;12.77;3.50;;;10.40;99.90;;;;;;5057288;28;20035;-78
2021/12/31 05:29:02;;;;;;;12.80;3.00;;;10.40;99.90;;;;;;5071155;28;20059;-79
2021/12/31 05:31:28;;;;;;;11.15;3.00;;;10.40;99.90;;;;;;5057015;28;20039;-79
2021/12/31 05:33:54;;;;;;;13.35;3.20;;;10.40;99.90;;;;;;5070509;28;20044;-79
2021/12/31 05:36:20;;;;;;;13.73;3.38;;;10.40;99.90;;;;;;5056441;28;21878;-79
2021/12/31 05:38:45;;;;;;;15.77;3.20;;;10.40;99.90;;;;;;5073464;28;20047;-80
2021/12/31 05:41:12;;;;;;;11.52;3.00;;;10.40;99.90;;;;;;5057438;28;20071;-79
2021/12/31 05:43:38;;;;;;;17.23;3.50;;;10.40;99.90;;;;;;5057148;28;20100;-78
2021/12/31 05:46:04;;;;;;;13.15;4.15;;;10.40;99.90;;;;;;5088002;28;20082;-78
2021/12/31 05:48:30;;;;;;;17.25;3.35;;;10.40;99.90;;;;;;5086196;28;20147;-79
2021/12/31 05:50:56;;;;;;;12.20;3.20;;;10.40;99.90;;;;;;5070273;28;20067;-79
2021/12/31 05:53:22;;;;;;;13.85;3.40;;;10.40;99.90;;;;;;5105319;28;20522;-79
2021/12/31 05:55:48;;;;;;;15.55;3.78;;;10.30;99.90;;;;;;5106673;28;20071;-79
2021/12/31 05:58:14;;;;;;;12.10;3.70;;;10.30;99.90;;;;;;5071402;28;20051;-79
2021/12/31 06:00:39;;;;;;;11.65;2.80;;;10.30;99.90;;;;;;5071198;28;20118;-78
2021/12/31 06:03:05;;;;;;;12.32;2.95;;;10.20;99.90;;;;;;5088097;28;20035;-81
2021/12/31 06:05:31;;;;;;;15.65;3.45;;;10.20;99.90;;;;;;5081632;28;20055;-79
2021/12/31 06:07:57;;;;;;;12.60;3.90;;;10.20;99.90;;;;;;5052386;28;20119;-79
2021/12/31 06:10:26;;;;;;;12.60;3.10;;;10.10;99.90;;;;;;5067214;28;20073;-79
2021/12/31 06:12:56;;;;;;;13.60;3.45;;;10.10;99.90;;;;;;5069260;28;20040;-80
2021/12/31 06:15:23;;;;;;;12.93;3.17;;;10.10;99.90;;;;;;5083317;28;20097;-79
2021/12/31 06:17:50;;;;;;;12.70;3.35;;;10.10;99.90;;;;;;5083486;28;20075;-79
2021/12/31 06:20:15;;;;;;;10.20;3.10;;;10.10;99.90;;;;;;5051651;28;20088;-79
2021/12/31 06:22:41;;;;;;;12.10;2.80;;;10.10;99.90;;;;;;5059983;28;20235;-79
2021/12/31 06:25:07;;;;;;;13.65;3.20;;;10.20;99.90;;;;;;5083694;28;20474;-79
2021/12/31 06:27:33;;;;;;;10.23;2.97;;;10.10;99.90;;;;;;5068460;28;20036;-79
2021/12/31 06:29:59;;;;;;;10.40;3.28;;;10.10;99.90;;;;;;5067662;28;20124;-79
2021/12/31 06:32:25;;;;;;;11.13;2.92;;;10.10;99.90;;;;;;5061020;28;20048;-80
2021/12/31 06:34:50;;;;;;;12.82;3.70;;;10.00;99.90;;;;;;5082927;28;20416;-79
2021/12/31 06:37:16;;;;;;;12.55;3.22;;;10.00;99.90;;;;;;5065470;28;20048;-79
2021/12/31 06:39:44;;;;;;;13.60;2.95;;;10.00;99.90;;;;;;5067352;28;20051;-79
2021/12/31 06:42:09;;;;;;;12.93;3.20;;;10.00;99.90;;;;;;5068149;28;20490;-79
2021/12/31 06:44:36;;;;;;;14.05;3.63;;;10.00;99.90;;;;;;5061754;28;20051;-79
2021/12/31 06:47:05;;;;;;;13.13;3.53;;;10.00;99.90;;;;;;5083394;28;20124;-79
2021/12/31 06:49:32;;;;;;;13.65;3.45;;;10.00;99.90;;;;;;5068438;28;20063;-79
2021/12/31 06:51:58;;;;;;;10.85;3.20;;;10.00;99.90;;;;;;5068292;28;20507;-79
2021/12/31 06:54:23;;;;;;;15.00;3.28;;;10.10;99.90;;;;;;5050707;28;20040;-79
2021/12/31 06:56:49;;;;;;;11.20;2.80;;;10.00;99.90;;;;;;5064265;28;20044;-79
2021/12/31 06:59:15;;;;;;;12.52;3.15;;;10.20;99.90;;;;;;5066905;28;20222;-79
2021/12/31 07:01:41;;;;;;;13.52;4.00;;;10.00;99.90;;;;;;5064684;28;20045;-79
2021/12/31 07:04:07;;;;;;;12.77;3.28;;;10.00;99.90;;;;;;5067858;28;20054;-78
2021/12/31 07:06:32;;;;;;;12.75;2.72;;;10.00;99.90;;;;;;5099933;28;20164;-79
2021/12/31 07:08:58;;;;;;;10.27;3.08;;;10.00;99.90;;;;;;5078523;28;20485;-79
2021/12/31 07:11:24;;;;;;;8.20;2.88;;;9.90;99.90;;;;;;5083901;28;20046;-80
2021/12/31 07:13:51;;;;;;;10.30;2.67;;;9.90;99.90;;;;;;5065954;28;20067;-79
2021/12/31 07:16:17;;;;;;;11.90;3.88;;;9.90;99.90;;;;;;5082618;28;20059;-79
2021/12/31 07:18:43;;;;;;;12.75;2.75;;;9.80;99.90;;;;;;5100229;28;20076;-79
2021/12/31 07:21:09;;;;;;;7.90;3.10;;;9.80;99.90;;;;;;5063582;28;20074;-79
2021/12/31 07:23:34;;;;;;;11.40;3.13;;;9.70;99.90;;;;;;5064915;28;20055;-79
2021/12/31 07:26:00;;;;;;;11.98;3.00;;;9.70;99.90;;;;;;5063767;28;20044;-78
2021/12/31 07:28:28;;;;;;;9.55;3.00;;;9.70;99.90;;;;;;5064674;28;20051;-80
2021/12/31 07:30:54;;;;;;;17.40;3.30;;;9.60;99.90;;;;;;5060101;28;20048;-78
2021/12/31 07:33:22;;;;;;;12.32;3.63;;;9.70;99.90;;;;;;5062916;28;20040;-78
2021/12/31 07:35:48;;;;;;;15.50;3.90;;;9.70;99.90;;;;;;5067186;28;20048;-78
2021/12/31 07:38:20;;;;;;;9.20;3.10;;;9.70;99.90;;;;;;5047359;28;20047;-78
2021/12/31 07:40:48;;;;;;;12.70;3.33;;;9.70;99.90;;;;;;5065927;28;20082;-78
2021/12/31 07:43:14;;;;;;;11.90;3.13;;;9.70;99.90;;;;;;5080304;28;20040;-77
2021/12/31 07:45:41;;;;;;;15.68;3.75;;;9.80;99.90;;;;;;5066045;28;20055;-78
2021/12/31 07:48:07;;;;;;;11.25;3.30;;;9.90;99.90;;;;;;5081763;28;20397;-79
2021/12/31 07:50:36;;;;;;;13.00;3.60;;;9.80;99.90;;;;;;5082220;28;20052;-79
2021/12/31 07:53:05;;;;;;;13.88;3.33;;;9.80;99.90;;;;;;5068007;28;20104;-79
2021/12/31 07:55:32;;;;;;;11.23;3.10;;;9.90;99.90;;;;;;5052584;28;20052;-78
2021/12/31 07:57:58;;;;;;;13.55;3.60;;;9.90;99.90;;;;;;5051788;28;20060;-79
2021/12/31 08:00:24;;;;;;;16.45;3.20;;;9.90;99.90;;;;;;5069499;28;20047;-79
2021/12/31 08:02:50;;;;;;;11.93;3.00;;;10.00;99.90;;;;;;5077067;28;20137;-78
2021/12/31 08:05:16;;;;;;;14.35;3.55;;;10.00;99.90;;;;;;5089569;28;20644;-79
2021/12/31 08:07:42;;;;;;;12.80;3.28;;;10.00;99.90;;;;;;5071607;28;20382;-79
2021/12/31 08:10:08;;;;;;;15.02;3.50;;;10.00;99.90;;;;;;5088733;28;20058;-79
2021/12/31 08:12:37;;;;;;;16.55;3.85;;;9.90;99.90;;;;;;5078490;28;20116;-79
2021/12/31 08:15:04;;;;;;;15.02;3.85;;;10.00;99.90;;;;;;5072248;28;20047;-79
2021/12/31 08:17:30;;;;;;;11.75;3.47;;;9.90;99.90;;;;;;5055493;28;20479;-80
2021/12/31 08:19:56;;;;;;;12.48;3.63;;;9.90;99.90;;;;;;5072337;28;20047;-79
2021/12/31 08:22:23;;;;;;;15.13;3.50;;;9.90;99.90;;;;;;5071905;28;20051;-79
2021/12/31 08:24:48;;;;;;;16.92;4.00;;;9.80;99.90;;;;;;5072323;28;20052;-79
2021/12/31 08:27:14;;;;;;;20.77;3.42;;;9.80;99.90;;;;;;5106577;28;20059;-79
2021/12/31 08:29:40;;;;;;;19.50;4.38;;;9.70;99.90;;;;;;5070326;28;20093;-79
2021/12/31 08:32:06;;;;;;;20.15;3.83;;;9.70;99.90;;;;;;5055432;28;20044;-79
2021/12/31 08:34:32;;;;;;;17.50;4.03;;;9.70;99.90;;;;;;5087918;28;20058;-79
2021/12/31 08:36:58;;;;;;;16.42;3.97;;;9.70;99.90;;;;;;5073484;28;20043;-79
2021/12/31 08:39:24;;;;;;;19.00;4.38;;;9.70;99.90;;;;;;5088901;28;20047;-79
2021/12/31 08:41:50;;;;;;;18.15;4.07;;;9.70;99.90;;;;;;5073213;28;20296;-80
2021/12/31 08:44:16;;;;;;;15.20;3.90;;;9.60;99.90;;;;;;5055821;28;20083;-80
2021/12/31 08:46:42;;;;;;;20.75;4.13;;;9.60;99.90;;;;;;5062043;28;20637;-80
2021/12/31 08:49:08;;;;;;;11.85;3.38;;;9.70;99.90;;;;;;5088592;28;20047;-80
2021/12/31 08:51:34;;;;;;;15.15;4.15;;;9.60;99.90;;;;;;5087771;28;20048;-79
2021/12/31 08:54:00;;;;;;;18.02;4.13;;;9.60;99.90;;;;;;5072471;28;20048;-79
2021/12/31 08:56:26;;;;;;;14.50;3.75;;;9.60;99.90;;;;;;5089895;28;20159;-79
2021/12/31 08:58:52;;;;;;;17.55;4.03;;;9.60;99.90;;;;;;5088763;28;20059;-78
2021/12/31 09:01:18;;;;;;;12.50;3.75;;;9.60;99.90;;;;;;5085707;28;20113;-78
2021/12/31 09:03:44;;;;;;;15.27;4.65;;;9.60;99.90;;;;;;5070578;28;20577;-78
2021/12/31 09:06:11;;;;;;;23.02;4.43;;;9.60;99.90;;;;;;5072008;28;20105;-78
2021/12/31 09:08:37;;;;;;;20.20;4.15;;;9.60;99.90;;;;;;5070115;28;20359;-79
2021/12/31 09:11:03;;;;;;;13.95;3.65;;;9.60;99.90;;;;;;5089362;28;20589;-78
2021/12/31 09:13:31;;;;;;;17.52;4.57;;;9.60;99.90;;;;;;5071705;28;20489;-79
2021/12/31 09:15:57;;;;;;;18.90;4.30;;;9.60;99.90;;;;;;5054607;28;20039;-79
2021/12/31 09:18:23;;;;;;;12.95;3.60;;;9.60;99.90;;;;;;5073156;28;20044;-79
2021/12/31 09:20:49;;;;;;;17.55;4.25;;;9.50;99.90;;;;;;5088414;28;20040;-79
2021/12/31 09:23:15;;;;;;;20.73;4.18;;;9.50;99.90;;;;;;5070196;28;20079;-79
2021/12/31 09:25:43;;;;;;;21.52;4.03;;;9.50;99.90;;;;;;5105836;28;20086;-79
2021/12/31 09:28:08;;;;;;;14.98;4.03;;;9.50;99.90;;;;;;5076248;28;20729;-79
2021/12/31 09:30:34;;;;;;;19.88;4.70;;;9.50;99.90;;;;;;5075575;28;20044;-80
2021/12/31 09:33:00;;;;;;;18.42;4.90;;;9.50;99.90;;;;;;5076015;28;20537;-79
2021/12/31 09:35:26;;;;;;;18.58;4.82;;;9.50;99.90;;;;;;5059498;28;20044;-78
2021/12/31 09:37:51;;;;;;;18.90;3.88;;;9.50;99.90;;;;;;5050710;28;20120;-79
2021/12/31 09:40:18;;;;;;;19.45;4.38;;;9.50;99.90;;;;;;5059822;28;20053;-78
2021/12/31 09:43:04;;;;;;;18.92;3.90;;;9.50;99.90;;;;;;5107007;28;20130;-79
2021/12/31 09:45:31;;;;;;;16.67;4.13;;;9.50;99.90;;;;;;5093346;28;20111;-79
2021/12/31 09:47:59;;;;;;;19.20;4.53;;;9.50;99.90;;;;;;5058964;28;20615;-78
2021/12/31 09:50:28;;;;;;;19.35;4.88;;;9.40;99.90;;;;;;5043606;28;20389;-78
2021/12/31 09:52:54;;;;;;;27.35;4.85;;;9.50;99.90;;;;;;5057304;28;20048;-79
2021/12/31 09:55:41;;;;;;;19.52;4.63;;;9.40;99.90;;;;;;5058906;28;20122;-79
2021/12/31 09:58:09;;;;;;;20.15;4.82;;;9.40;99.90;;;;;;5089971;28;20126;-79
2021/12/31 10:00:36;;;;;;;22.00;5.18;;;9.40;99.90;;;;;;5058842;28;20043;-79
2021/12/31 10:03:25;;;;;;;23.45;5.28;;;9.40;99.90;;;;;;5071401;28;20043;-79
2021/12/31 10:05:53;;;;;;;18.92;4.82;;;9.40;99.90;;;;;;5071498;28;20124;-78
2021/12/31 10:08:26;;;;;;;17.30;4.00;;;9.40;99.90;;;;;;5065764;28;20095;-79
2021/12/31 10:11:10;;;;;;;21.63;5.70;;;9.40;99.90;;;;;;5088763;28;20071;-78
2021/12/31 10:13:44;;;;;;;21.33;3.92;;;9.40;99.90;;;;;;5084107;28;20035;-79
2021/12/31 10:16:19;;;;;;;21.48;4.97;;;9.40;99.90;;;;;;5074596;28;20134;-79
2021/12/31 10:18:45;;;;;;;18.40;4.65;;;9.40;99.90;;;;;;5073705;28;20050;-80
2021/12/31 10:21:11;;;;;;;19.15;4.68;;;9.40;99.90;;;;;;5090037;28;20040;-79
2021/12/31 10:23:38;;;;;;;23.35;4.30;;;9.40;99.90;;;;;;5057250;28;20035;-79
2021/12/31 10:26:17;;;;;;;16.17;4.00;;;9.40;99.90;;;;;;5071167;28;20059;-79
2021/12/31 10:28:57;;;;;;;21.98;4.85;;;9.40;99.90;;;;;;5087227;28;20082;-79
2021/12/31 10:31:23;;;;;;;17.48;4.78;;;9.40;99.90;;;;;;5084103;28;20047;-79
2021/12/31 10:33:50;;;;;;;19.98;4.68;;;9.40;99.90;;;;;;5083329;28;20070;-80
2021/12/31 10:36:37;;;;;;;21.42;4.55;;;9.40;99.90;;;;;;5068244;28;20047;-80
2021/12/31 10:39:16;;;;;;;22.02;5.15;;;9.30;99.90;;;;;;5069101;28;20054;-79
2021/12/31 10:41:44;;;;;;;20.52;6.00;;;9.30;99.90;;;;;;5070613;28;20048;-80
2021/12/31 10:44:10;;;;;;;35.53;5.30;;;9.30;99.90;;;;;;5071789;28;20511;-79
2021/12/31 10:46:36;;;;;;;29.77;5.93;;;9.30;99.90;;;;;;5056053;28;21551;-78
2021/12/31 10:49:07;;;;;;;26.80;5.25;;;9.30;99.90;;;;;;5054550;28;20036;-79
2021/12/31 10:51:41;;;;;;;29.90;5.97;;;8.80;99.90;;;;;;5053825;28;20746;-79
2021/12/31 10:54:37;;;;;;;26.23;5.43;;;9.20;99.90;;;;;;5086584;28;20794;-78
2021/12/31 10:57:03;;;;;;;26.35;5.65;;;9.30;99.90;;;;;;5084434;28;20051;-79
2021/12/31 10:59:33;;;;;;;28.45;5.47;;;9.20;99.90;;;;;;5062528;28;20093;-79
2021/12/31 11:01:59;;;;;;;31.70;5.50;;;9.20;99.90;;;;;;5084369;28;20052;-79
2021/12/31 11:04:28;;;;;;;21.40;5.13;;;9.20;99.90;;;;;;5069135;28;20438;-79
2021/12/31 11:06:55;;;;;;;22.23;5.35;;;9.20;99.90;;;;;;5066932;28;20062;-80
2021/12/31 11:09:24;;;;;;;28.42;5.35;;;9.20;99.90;;;;;;5069153;28;20599;-78
2021/12/31 11:11:52;;;;;;;30.45;6.28;;;9.20;99.90;;;;;;5068726;28;20492;-79
2021/12/31 11:14:18;;;;;;;31.77;6.18;;;9.20;99.90;;;;;;5079295;28;20074;-79
2021/12/31 11:16:44;;;;;;;28.83;6.13;;;9.20;99.90;;;;;;5069884;28;20044;-79
2021/12/31 11:19:11;;;;;;;26.95;6.40;;;9.20;99.90;;;;;;5084469;28;20056;-78
2021/12/31 11:21:38;;;;;;;25.92;5.38;;;9.20;99.90;;;;;;5054741;28;20370;-78
2021/12/31 11:24:26;;;;;;;33.92;6.32;;;9.20;99.90;;;;;;5080731;28;20633;-79
2021/12/31 11:26:52;;;;;;;24.27;5.20;;;9.20;99.90;;;;;;5066940;28;20058;-79
2021/12/31 11:29:18;;;;;;;29.52;5.65;;;9.20;99.90;;;;;;5068783;28;20134;-79
2021/12/31 11:31:44;;;;;;;36.20;7.75;;;9.20;99.90;;;;;;5069136;28;20131;-79
2021/12/31 11:34:11;;;;;;;34.95;7.35;;;9.20;99.90;;;;;;5067731;28;20047;-79
2021/12/31 11:36:38;;;;;;;32.75;7.30;;;9.30;99.90;;;;;;5080226;28;20122;-79
2021/12/31 11:39:38;;;;;;;26.65;6.43;;;9.20;99.90;;;;;;5083387;28;20052;-79
2021/12/31 11:42:08;;;;;;;28.17;6.35;;;9.30;99.90;;;;;;5041669;28;20074;-79
2021/12/31 11:44:36;;;;;;;34.97;7.25;;;9.20;99.90;;;;;;5080700;28;20051;-79
2021/12/31 11:47:17;;;;;;;35.42;6.72;;;9.20;99.90;;;;;;5068494;28;20086;-80
2021/12/31 11:49:45;;;;;;;30.70;6.45;;;9.20;99.90;;;;;;5086610;28;20055;-80
2021/12/31 11:52:20;;;;;;;30.63;7.00;;;9.20;99.90;;;;;;5064295;28;20167;-79
2021/12/31 11:54:46;;;;;;;31.55;6.10;;;9.20;99.90;;;;;;5068587;28;20425;-83
2021/12/31 11:57:29;;;;;;;28.80;7.38;;;9.20;99.90;;;;;;5104532;28;20038;-82
2021/12/31 11:59:55;;;;;;;30.42;5.95;;;9.20;99.90;;;;;;5087589;28;20059;-80
2021/12/31 12:02:50;;;;;;;24.40;6.07;;;9.20;99.90;;;;;;5055805;28;20172;-81
2021/12/31 12:05:16;;;;;;;36.10;7.47;;;9.20;99.90;;;;;;5038715;28;20134;-85
2021/12/31 12:07:49;;;;;;;28.40;5.70;;;9.10;99.90;;;;;;5037574;28;20130;-81
2021/12/31 12:10:37;;;;;;;26.30;5.97;;;9.10;99.90;;;;;;5069679;28;20043;-79
2021/12/31 12:13:25;;;;;;;21.55;6.53;;;9.10;99.90;;;;;;5071602;28;20043;-80
2021/12/31 12:15:51;;;;;;;23.85;5.70;;;9.20;99.90;;;;;;5080597;28;20051;-80
2021/12/31 12:18:49;;;;;;;24.30;6.38;;;9.20;99.90;;;;;;5073315;28;20051;-78
2021/12/31 12:21:32;;;;;;;26.25;5.28;;;9.20;99.90;;;;;;5064896;28;20404;-79
2021/12/31 12:23:57;;;;;;;26.80;6.43;;;9.20;99.90;;;;;;5063519;28;20488;-78
2021/12/31 12:26:24;;;;;;;20.75;5.20;;;9.20;99.90;;;;;;5039900;28;20107;-78
2021/12/31 12:28:50;;;;;;;18.20;6.20;;;9.20;99.90;;;;;;5062661;28;20061;-79
2021/12/31 12:31:17;;;;;;;29.45;6.10;;;9.20;99.90;;;;;;5085968;28;20051;-79
2021/12/31 12:33:43;;;;;;;24.08;5.47;;;9.20;99.90;;;;;;5086783;28;20524;-79
2021/12/31 12:36:15;;;;;;;29.33;6.85;;;9.20;99.90;;;;;;5056178;28;20059;-79
2021/12/31 12:38:41;;;;;;;38.38;5.70;;;9.00;99.90;;;;;;5066496;28;20048;-79
2021/12/31 12:41:10;;;;;;;25.92;5.97;;;9.20;99.90;;;;;;5061297;28;20043;-85
2021/12/31 12:43:48;;;;;;;28.80;6.30;;;9.20;99.90;;;;;;5038418;28;20100;-85
2021/12/31 12:46:18;;;;;;;36.90;7.80;;;9.20;99.90;;;;;;5067315;28;20055;-85
2021/12/31 12:48:52;;;;;;;36.80;6.78;;;9.20;99.90;;;;;;5068519;28;20063;-85
2021/12/31 12:51:31;;;;;;;41.35;7.72;;;9.20;99.90;;;;;;5071139;28;20842;-85